Lubbock, TX

4:35 PM CST on February 10, 2016 (GMT -0600)
Atkins Middle School | | Change Station
CLOSE
Current Station
Personal Weather Station
Location: Lubbock, TX
Elevation: 3232 ft
Nearby Weather Stations

Elev 3232 ft 33.54 °N, 101.86 °W | Updated 13 minutes ago

Clear
Clear
77.4 °F
Feels Like 76 °F
N
4.5
Wind Variable Wind from SW
Gusts 4.9 mph

Today
High -- | Low -- °F
--% Chance of Precip.
Yesterday
High -- | Low -- °F
Precip. -- in
Pressure 30.08 in
Visibility 10.0 miles
Clouds Clear
Heat Index 76 °F
Dew Point 16 °F
Humidity 10%
Rainfall 0.00 in
Snow Depth Not available.
7:36 AM 6:26 PM
Waxing Crescent, 7% visible
METAR KLBB 102153Z 25018KT 10SM CLR 25/M09 A3014 RMK AO2 PK WND 24028/2128 SLP185 T02501094
Pressure 30.08 in
Visibility 10.0 miles
Clouds Clear
Heat Index 76 °F
Dew Point 16 °F
Humidity 10%
Rainfall 0.00 in
Snow Depth Not available.
7:36 AM 6:26 PM
Waxing Crescent, 7% visible
METAR KLBB 102153Z 25018KT 10SM CLR 25/M09 A3014 RMK AO2 PK WND 24028/2128 SLP185 T02501094

10-Day Weather Forecast

Almanac

Astronomy

Feb. 10, 2016 Rise Set
Actual Time
Civil Twilight
Nautical Twilight
Astronomical Twilight
Moon
Length of Visible Light
Length of Day
Tomorrow will be .
, % of the Moon is Illuminated

Today's Extremes

State Highs State Lows

Community

WunderPhotos

Upload Photos

1,891,944 photos uploaded!

WunderBlog® & News

Nearby

Air Quality

  Air Quality AQ Index Pollutant
Not available.

Snow Depth

Station Depth Elevation

Earthquake Activity

City Distance Mag. Time & Date
Minimum magnitude displayed is 2.5.

Coastal Water Temperatures

Place Temperature

Stations

Nearby Weather Stations

Station Location Temp. Windchill Dew Point Humidity Wind Precip. Elev Updated Type
                   

Watches & Warnings

There are currently no watches in effect.